Ergebnisliste vom: 07.11.2015 - Kleiner Sachsenlauf2015 - 11,6 km

weitere Ergebnisse >>

Platz Pl.m Pl.w Stnr. Name,Vorname Verein GJ AK Akm AKw Endzeit RŘckstand
1 1   172 Heiland, John SV Elbland Coswig Mei├čen 90 M20 1   0:40:07 0:00:00
2 2   101 Lindig, Thomas SV Elbland Coswig Mei├čen 70 M45 1   0:41:14 0:01:07
3 3   149 Goldbach, Thomas SC Riesa 83 M30 1   0:41:44 0:01:37
4 4   163 Schurig, Toni SC Riesa 96 mU20 1   0:41:47 0:01:40
5 5   199 Schwarzer, Roland Katzengebirgsl├Ąufer 85 M30 2   0:41:51 0:01:44
6 6   110 Loreck, Franco Klebe-X.de 86 M20 2   0:42:44 0:02:37
7 7   227 Eschler, Rene SV Elbland Coswig Mei├čen 75 M40 1   0:43:20 0:03:13
8 8   221 Zimmermann, Stefan LG Ohra-Energie 81 M30 3   0:43:40 0:03:33
9 9   183 Eisleben, Maik SG Adelsberg 83 M30 4   0:43:42 0:03:35
10 10   144 Schneider, Florian Freital 94 M20 3   0:44:44 0:04:37
11 11   140 Berndt, Thomas SSV Planeta Radebeul 68 M45 2   0:44:46 0:04:39
12 12   223 Hilbert, J├Ârg SG Neukirchen/Erzg. 76 M35 1   0:44:58 0:04:51
13 13   132 Sittner, Falk Lauff├Ârdergruppe Gruna 81 M30 5   0:45:02 0:04:55
14 14   164 Tuchscherer, Rolf Dresden 63 M50 1   0:45:37 0:05:30
15 15   173 Lehmann, J├Ârg SV Elbland Coswig Mei├čen 66 M45 3   0:45:38 0:05:31
16 16   203 Lessig, Ralf SG Dresdner Bank 67 M45 4   0:45:51 0:05:44
17 17   234 Wensch, Stefan Dresden 79 M35 2   0:46:19 0:06:12
18 18   218 Wittwer, Frank Dresden 68 M45 5   0:46:28 0:06:21
19 19   211 P├Ąpscheck, Silvio Gro├čenhain 82 M30 6   0:46:58 0:06:51
20 20   112 Porth, Karsten MSV Meusegast 66 M45 6   0:46:59 0:06:52
21 21   162 Ulrich, Kai-Uwe Dresden 66 M45 7   0:47:02 0:06:55
22 22   229 B├Âhme, Kai LG Priestewitz 70 M45 8   0:47:09 0:07:02
23 23   240 Schliwa, Sebastian Team Tempus/SV Elbland Coswig Mei├čen 83 M30 7   0:47:20 0:07:13
24 24   111 ├Âhmichen, Steffen Trittfrequenz/Laufkultour.de 82 M30 8   0:47:25 0:07:18
25 25   198 Schwan, Ralph ATSV Kirchseeon 65 M50 2   0:47:29 0:07:22
26 26   192 Otto, Andreas SV Elbland Coswig Mei├čen 76 M35 3   0:47:33 0:07:26
27 27   239 Sch├╝cke, Ralph Ausdauertraining Dresden.de 69 M45 9   0:47:42 0:07:35
28 28   104 Noack gen. Gr├Ąfe, Stefan LG TuS Weinb├Âhla 79 M35 4   0:47:45 0:07:38
29 29   147 Vogel, Andreas Sparkassen Sportverein Chemnitz 65 M50 3   0:47:48 0:07:41
30 30   236 Mutzke, Thomas Wei├čig a. Rasch├╝tz 75 M40 2   0:48:20 0:08:13
31 31   261 Gehre, Torsten Coswig 75 M40 3   0:48:23 0:08:16
32 32   121 M├╝ller, Calle Dresden 71 M40 4   0:48:24 0:08:17
33   1 123 Stich, Grit Radebeul 70 W45   1 0:48:26 0:08:19
34 33   131 Jancker, Hans-Dieter SV Elbland Coswig Meissen 52 M60+ 1   0:48:52 0:08:45
35 34   122 Krankowsky, Sven Schlamml├Ąufer Dresden 69 M45 10   0:48:59 0:08:52
36 35   105 Kaiber, Tilo Dresden 69 M45 11   0:49:01 0:08:54
37 36   113 Menning, Dag Skizunft Dresden 64 M50 4   0:49:07 0:09:00
38 37   191 Junghanns, Mario D├Âbelner SV Vorw├Ąrts 65 M50 5   0:49:12 0:09:05
39   2 170 B├╝rli, Simone Ausdauertraining Dresden.de 73 W40   1 0:49:23 0:09:16
40 38   195 Ruick, Paul Soltau 87 M20 4   0:49:29 0:09:22
41 39   165 Eggers, Olaf Dresden 70 M45 12   0:49:35 0:09:28
42   3 103 Lindig, Katrin SV Elbland Coswig Mei├čen 74 W40   2 0:49:37 0:09:30
43 40   262 F├Ârster, Lukas SG Gr├╝ne Eiche Gro├čthiemig 99 mU18 1   0:49:44 0:09:37
44 41   130 Sonntag, Diddi BikePoint Dresden 60 M55 1   0:49:46 0:09:39
45 42   157 Giebler, Andre LG TuS Weinb├Âhla 60 M55 2   0:49:51 0:09:44
46 43   255 Herrmann, Ralf Team Tempus 81 M30 9   0:50:14 0:10:07
47 44   184 Tietze, Ralf Coswig 76 M35 5   0:50:25 0:10:18
48 45   129 Naumann, Volker SV Vorw├Ąrts Zwickau 58 M55 3   0:50:27 0:10:20
49 46   136 M├╝tze, Sven Sportfreunde Ottendorf-Okrilla 76 M35 6   0:50:37 0:10:30
50 47   190 Dewitz, Heiko ESV Lok D├Âbeln 64 M50 6   0:50:41 0:10:34
51 48   206 Becker, Heiko Strehla 68 M45 13   0:50:42 0:10:35
52 49   116 Buckwitz, Frank Team Pinki & Brain 81 M30 10   0:50:44 0:10:37
53 50   148 Fleischer, Torsten Coswig 67 M45 14   0:50:48 0:10:41
54   4 166 Uhlig, Ines Skikub Dresden-Niedersedlitz 70 W45   2 0:51:00 0:10:53
55 51   197 Peterek, Lars 1. RV Pirna 78 M35 7   0:51:04 0:10:57
56 52   210 Weps, Marek Dresden 75 M40 5   0:51:20 0:11:13
57 53   213 Freier, Jens Dresden 67 M45 15   0:51:21 0:11:14
58 54   159 Rox, Andreas Ebersbach 59 M55 4   0:51:28 0:11:21
59 55   120 Rothe, Thomas Radeburg 59 M55 5   0:51:34 0:11:27
60 56   196 M├╝tze, Ingo SV Elbland Coswig Mei├čen 68 M45 16   0:51:45 0:11:38
61 57   153 Matz, J├╝rgen Dresden 58 M55 6   0:52:02 0:11:55
62 58   258 Donegan, Keitzh Ireland 83 M30 11   0:52:08 0:12:01
63 59   188 Grabowski, Michael Riesa 65 M50 7   0:52:17 0:12:10
64 60   154 Schwitalla, Dietmar SC Riesa 56 M55 7   0:52:18 0:12:11
65 61   109 Sch├╝tzka, Georg LG TuS Weinb├Âhla 86 M20 5   0:52:27 0:12:20
66 62   185 Berndt, Lars Dresden 73 M40 6   0:52:33 0:12:26
67 63   114 Berger, Victor TuS Coswig 53 M60+ 2   0:53:00 0:12:53
68 64   124 Stich, Nicolas SV Elbland Coswig Mei├čen 99 mU18 2   0:53:23 0:13:16
69 65   226 Rasch, G├╝nter Coswig 61 M50 8   0:53:28 0:13:21
70 66   212 Kuhnert, Rico Dresden 81 M30 12   0:53:34 0:13:27
71 67   107 Heyer, Ulrich Chemnitz 53 M60+ 3   0:53:38 0:13:31
72 68   102 Gall, Jens Ratingen 66 M45 17   0:53:40 0:13:33
73 69   260 G├Âhler, Sven SV Elbland Coswig Mei├čen 72 M40 7   0:53:41 0:13:34
74   5 248 Hammer, Grit Mei├čen 85 W30   1 0:53:54 0:13:47
75 70   235 M├Âbius, Tino Diesbar-Seu├člitz 64 M50 9   0:53:56 0:13:49
76 71   181 Schubert, Frank Laufw├Âlffe Dresden 62 M50 10   0:54:00 0:13:53
77   6 189 Dewitz, Silke ESV Lok D├Âbeln 67 W45   3 0:54:09 0:14:02
78 72   180 Karger, Sylvio Coswig 63 M50 11   0:54:23 0:14:16
79 73   219 Kuge, Jens Mei├čen 70 M45 18   0:54:28 0:14:21
80 74   143 Zielke, Frank Wacker LG N├╝nchritz 69 M45 19   0:54:31 0:14:24
81 75   169 K├Âhler, Alexander Mei├čen 89 M20 6   0:54:37 0:14:30
82 76   174 Falkenthal, Frank Gro├čenhain 73 M40 8   0:54:46 0:14:39
83 77   205 Feder, Hartmut SC Riesa 60 M55 8   0:55:03 0:14:56
84 78   160 Mey, Manfred Dresden 60 M55 9   0:55:14 0:15:07
85 79   222 Striebel, Rainer AOK Plus 62 M50 12   0:55:19 0:15:12
86 80   252 Scholze, Milan Dresden 62 M50 13   0:55:56 0:15:49
87 81   194 B├Âttger, Jan Laufen gegen Leiden 73 M40 9   0:56:04 0:15:57
88   7 216 Wolfram, Kathrin Dresden 70 W45   4 0:56:06 0:15:59
89 82   250 Kirschke, Marco Dresden 88 M20 7   0:56:15 0:16:08
90 83   135 Mei├čner, Frank Sportfreunde Ottendorf Okrilla 65 M50 14   0:56:29 0:16:22
91   8 208 Tsch├Âpe, Franziska Ausdauertraining Dresden.de 65 W50+   1 0:56:41 0:16:34
92 84   118 Richter, Rene Dresden 65 M50 15   0:57:18 0:17:11
93 85   257 O-Toole, Martin Ireland 80 M35 8   0:57:28 0:17:21
94 86   126 Stark, Bertold IPC-Radebeul 61 M50 16   0:57:32 0:17:25
95 87   225 Bittner, Andreas CVJM Coswig 71 M40 10   0:57:34 0:17:27
96 88   249 Noppel, Ralf SV Nordwind Naund├Ârfel 76 M35 9   0:57:50 0:17:43
97   9 108 Heyer, Ina Chemnitz 80 W35   1 0:57:53 0:17:46
98 89   168 B├Ąnsch, Gerd Laufgruppe Nossen 73 M40 11   0:58:15 0:18:08
99 90   259 Jakat, Gerd Eestly Husky Race 63 M50 17   0:58:20 0:18:13
100   10 171 Primus, Heike SC Riesa 62 W50+   2 0:58:21 0:18:14
101   11 186 K├╝mmel, Petra LG Priestewitz 65 W50+   3 0:58:29 0:18:22
102 91   127 Miersch, Ingolf Moritzburg 66 M45 20   0:58:35 0:18:28
103 92   256 B├╝chner, Florian Mei├čen 89 M20 8   0:58:47 0:18:40
104   12 230 Gei├čmar, Sandra Dresden 88 W20   1 0:58:53 0:18:46
105 93   142 Gr├╝tzner, Gunnar Dresden 58 M55 10   0:59:07 0:19:00
106 94   106 Urban, Gerd running boys 65 M50 18   0:59:10 0:19:03
107   13 115 ├Âhmichen, Eva Laufkultour.de 90 W20   2 0:59:25 0:19:18
108 95   243 Joestel, Klaus Niederau 62 M50 19   0:59:37 0:19:30
109 96   137 Grethe, Jens SSV Planeta Radebeul 71 M40 12   0:59:47 0:19:40
110   14 245 Moder, Maxie Dresden 81 W30   2 0:59:53 0:19:46
111 97   128 Vogel, Dieter Laufgruppe Nossen 65 M50 20   0:59:59 0:19:52
112 98   220 Popp, Volkmar Coswig 63 M50 21   1:00:13 0:20:06
113 99   155 Th├╝mmler, J├Ârg GMRL 63 M50 22   1:00:15 0:20:08
114 100   133 Tonn, Konrad SSV Planeta Radebeul 53 M60+ 4   1:00:17 0:20:10
115   15 151 Zabell, Nadja Wermsdorf OT Luppa 67 W45   5 1:00:18 0:20:11
116   16 146 Schinke, Mandy Dresden 84 W30   3 1:00:33 0:20:26
117 101   145 Schmidt, Daniel Real Egal Radeburg 80 M35 10   1:00:41 0:20:34
118 102   134 Degenkolbe, Leo Coswig 85 M30 13   1:00:49 0:20:42
118   17 209 Weps, Katja Dresden 76 W35   2 1:00:49 0:20:42
120   18 242 Paul, Katrin Dresden 75 W40   3 1:00:53 0:20:46
121 103   125 Hengst, Bernd Laufgruppe Nossen 45 M60+ 5   1:01:52 0:21:45
122   19 244 Preu├čner, Kristina Lauffreunde N├╝ne 74 W40   4 1:02:28 0:22:21
123 104   217 Wohs, Olaf Coswiger Kanuverein 68 M45 21   1:03:25 0:23:18
124   20 228 Stauch, Katrin Coswig 68 W45   6 1:03:27 0:23:20
125   21 119 Salzmann, Mandy Lommatzsch 80 W35   3 1:04:00 0:23:53
126 105   158 Block, Robert Dresden 82 M30 14   1:04:47 0:24:40
127   22 263 Berge, Anett Riesa 64 W50+   4 1:04:59 0:24:52
128   23 241 Mai, Alina Pirna 77 W35   4 1:06:13 0:26:06
129   24 207 Hammer, Ines Strehla 70 W45   7 1:06:18 0:26:11
130   25 233 M├╝ller, Michaela TV Frisch Auf Mei├čen 72 W40   5 1:06:26 0:26:19
131   26 182 Hesse, Karina Coswig 80 W35   5 1:06:40 0:26:33
132   27 193 Kothe, Melanie Mei├čen 78 W35   6 1:07:51 0:27:44
133 106   141 Senf, Dietmar Gro├čbothen 51 M60+ 6   1:07:59 0:27:52
134   28 187 Richter, Manuela LG Priestewitz 74 W40   6 1:08:10 0:28:03
135   29 215 Prysibilsi, Claudia Dresden 72 W40   7 1:08:24 0:28:17
136 107   202 Wick, Peter Weinb├Âhla 59 M55 11   1:08:33 0:28:26
137   30 167 Murcek, Sabine Coswig 62 W50+   5 1:08:41 0:28:34
138 108   253 Haupt, Uwe Weinb├Âhla 70 M45 22   1:09:06 0:28:59
139   31 232 Obst, Cornelia Coswig 65 W50+   6 1:09:16 0:29:09
140   32 117 Bergmann, Janette Team Pinki & Brain 82 W30   4 1:09:36 0:29:29
141 109   200 Trochold, Heinz Mylau 48 M60+ 7   1:09:51 0:29:44
142   33 237 Hilse, Yvette Peritz 67 W45   8 1:09:56 0:29:49
143 110   231 Heinzle, Christoph Dresden 82 M30 15   1:10:27 0:30:20
144 111   246 Meier, Friedhard Niederau 53 M60+ 8   1:11:38 0:31:31
145   34 161 Wehner, Cornelia Laufszene Sachsen 70 W45   9 1:12:01 0:31:54
146 112   238 Einhorn, Jens Dresden 71 M40 13   1:12:20 0:32:13
147 113   178 Zumpe, Robin Die Vereinslosen 89 M20 9   1:13:29 0:33:22
148 114   179 Haase, Marco Die Vereinslosen 78 M35 11   1:13:30 0:33:23
149 115   177 Wiedrich, Silvio Die Vereinslosen 78 M35 12   1:13:31 0:33:24
150 116   176 Schulze, Frank Die Vereinslosen 77 M35 13   1:13:32 0:33:25
151 117   175 Graupner, Marcus Die Vereinslosen 85 M30 16   1:13:33 0:33:26
152   35 204 Grimm, Katharina Mei├čen 86 W20   3 1:14:06 0:33:59
153   36 224 Pietzsch, Annette Radebeul 72 W40   8 1:14:54 0:34:47
154   37 251 Lumnitzerova, Lucia Coswig 90 W20   4 1:15:34 0:35:27
155   38 156 Th├╝mmler, Katrin Rennsteiglaufverein 65 W50+   7 1:16:10 0:36:03
156   39 150 Hering, Sybille Dresden 65 W50+   8 1:16:16 0:36:09
157   40 254 Zocher, Julia Mei├čen 92 W20   5 1:17:06 0:36:59
158 118   139 Heichen, Heiko Dresden 69 M45 23   1:17:48 0:37:41
159   41 138 Heichen, Simone Dresden 69 W45   10 1:17:55 0:37:48
160   42 152 Lehmann, Rita Dresden 80 W35   7 1:20:17 0:40:10
161 119   201 Beck, Tino Coswig 90 M20 10   1:21:20 0:41:13
162   43 247 Beger, Angela Coswig 79 W35   8 1:35:25 0:55:18
(c) 1990-2020 Blue Wonder Sport Promotion - Andreas Burow - Zeitnahme & Auswertung - www.Triathlon-Service.de